createdAt,value
2022-08-17T00:01:10.916Z,25.80
2022-08-17T00:03:39.630Z,25.80
2022-08-17T00:06:08.549Z,26.00
2022-08-17T00:08:36.355Z,25.80
2022-08-17T00:11:01.315Z,25.70
2022-08-17T00:13:28.279Z,25.70
2022-08-17T04:08:20.854Z,21.70
2022-08-17T04:10:44.933Z,22.90
2022-08-17T04:13:09.574Z,23.00
2022-08-17T04:15:33.997Z,23.00
2022-08-17T04:17:58.250Z,23.20
2022-08-17T04:20:25.170Z,23.20
2022-08-17T04:23:02.132Z,23.20
2022-08-17T04:25:28.323Z,23.20
2022-08-17T04:27:52.319Z,23.20
2022-08-17T04:30:16.560Z,23.30
2022-08-17T04:33:03.640Z,23.30
2022-08-17T04:35:35.690Z,23.30
2022-08-17T04:38:00.129Z,23.30
2022-08-17T04:40:45.077Z,23.30
2022-08-17T04:43:14.110Z,23.40
2022-08-17T04:45:55.507Z,23.50
2022-08-17T04:48:20.842Z,23.50
2022-08-17T04:50:49.005Z,23.50
2022-08-17T04:53:13.175Z,23.50
2022-08-17T04:55:41.441Z,23.60
2022-08-17T04:58:06.741Z,23.60
2022-08-17T05:00:30.615Z,23.60
2022-08-17T05:02:57.059Z,23.70
2022-08-17T05:05:23.261Z,23.70
2022-08-17T05:07:47.413Z,23.70
2022-08-17T05:10:11.945Z,23.70
2022-08-17T05:12:37.199Z,23.80
2022-08-17T05:15:01.304Z,23.70
2022-08-17T05:17:25.600Z,23.70
2022-08-17T05:19:51.997Z,23.80
2022-08-17T05:22:16.566Z,23.70
2022-08-17T05:24:43.619Z,23.70
2022-08-17T05:27:19.074Z,23.70
2022-08-17T05:29:44.274Z,23.80
2022-08-17T05:32:38.224Z,24.00
2022-08-17T05:35:01.064Z,24.00
2022-08-17T05:37:26.109Z,24.10
2022-08-17T05:39:50.036Z,24.10
2022-08-17T05:42:13.718Z,24.00
2022-08-17T05:44:37.354Z,24.00
2022-08-17T05:47:03.522Z,24.00
2022-08-17T05:49:29.737Z,24.00
2022-08-17T05:52:20.350Z,23.80
2022-08-17T05:55:00.095Z,24.00
2022-08-17T05:57:53.608Z,23.90
2022-08-17T06:00:30.112Z,23.80
2022-08-17T06:03:13.812Z,23.90
2022-08-17T06:05:56.022Z,23.80
2022-08-17T06:08:28.352Z,23.80
2022-08-17T06:10:59.451Z,23.90
2022-08-17T06:13:37.613Z,23.90
2022-08-17T06:16:33.050Z,24.00
2022-08-17T06:19:02.614Z,23.90
2022-08-17T06:21:32.141Z,24.10
2022-08-17T06:24:04.061Z,24.30
2022-08-17T06:26:42.751Z,24.00
2022-08-17T06:29:20.515Z,24.20
2022-08-17T06:31:44.319Z,24.10
2022-08-17T06:34:13.302Z,24.50
2022-08-17T06:36:50.715Z,24.50
2022-08-17T06:39:31.478Z,24.60
2022-08-17T06:42:06.672Z,24.70
2022-08-17T06:44:43.550Z,24.80
2022-08-17T06:47:28.552Z,24.80
2022-08-17T06:50:08.029Z,24.90
2022-08-17T06:52:55.544Z,25.00
2022-08-17T06:55:27.493Z,25.20
2022-08-17T06:57:57.881Z,25.00
2022-08-17T07:00:26.376Z,24.70
2022-08-17T07:02:56.880Z,24.70
2022-08-17T07:23:19.074Z,24.60
2022-08-17T07:25:42.761Z,24.70
2022-08-17T07:28:08.189Z,24.90
2022-08-17T07:30:44.666Z,24.90
2022-08-17T07:33:19.933Z,24.90
2022-08-17T07:35:48.261Z,24.90
2022-08-17T07:38:25.416Z,25.00
2022-08-17T07:41:03.933Z,25.00
2022-08-17T07:43:31.226Z,25.00
2022-08-17T07:46:44.864Z,25.10
2022-08-17T07:49:37.850Z,25.10
2022-08-17T07:52:48.045Z,24.90
2022-08-17T07:54:52.175Z,25.10
2022-08-17T07:57:35.827Z,25.20
2022-08-17T08:00:23.784Z,25.00
2022-08-17T08:03:27.308Z,25.10
2022-08-17T08:05:56.531Z,25.20
2022-08-17T08:08:29.148Z,25.40
2022-08-17T08:11:05.415Z,25.50
2022-08-17T08:13:32.347Z,25.40
2022-08-17T08:15:58.624Z,25.50
2022-08-17T08:18:53.803Z,25.30
2022-08-17T08:21:14.531Z,25.40
2022-08-17T08:23:46.388Z,25.40
2022-08-17T08:26:27.576Z,25.50
2022-08-17T08:29:04.550Z,25.50
2022-08-17T08:31:42.571Z,25.60
2022-08-17T08:34:53.207Z,25.60
2022-08-17T08:37:17.694Z,25.60
2022-08-17T08:39:57.118Z,25.90
2022-08-17T08:42:32.942Z,25.60
2022-08-17T08:45:06.787Z,25.70
2022-08-17T08:47:51.373Z,25.70
2022-08-17T08:50:36.989Z,25.80
2022-08-17T08:53:28.967Z,25.80
2022-08-17T08:55:59.643Z,25.80
2022-08-17T08:58:41.312Z,26.00
2022-08-17T09:01:18.086Z,26.00
2022-08-17T09:04:24.680Z,26.00
2022-08-17T09:07:03.623Z,25.90
2022-08-17T09:09:39.360Z,25.90
2022-08-17T09:12:13.817Z,25.60
2022-08-17T09:14:46.928Z,25.60
2022-08-17T09:17:16.415Z,25.60
2022-08-17T09:19:49.050Z,25.70
2022-08-17T09:22:31.731Z,25.70
2022-08-17T09:25:06.854Z,25.80
2022-08-17T09:27:38.010Z,25.60
2022-08-17T09:30:09.000Z,25.50
2022-08-17T09:32:39.540Z,25.30
2022-08-17T09:35:10.695Z,25.50
2022-08-17T09:37:48.171Z,25.50
2022-08-17T09:40:22.672Z,25.40
2022-08-17T09:42:51.230Z,25.30
2022-08-17T09:45:33.374Z,25.20
2022-08-17T09:48:04.844Z,25.10
2022-08-17T09:51:03.440Z,25.20
2022-08-17T09:53:20.661Z,25.20
2022-08-17T09:56:10.564Z,25.40
2022-08-17T09:59:00.539Z,25.30
2022-08-17T10:01:36.690Z,25.20
2022-08-17T10:04:23.822Z,25.20
2022-08-17T10:06:58.719Z,25.10
2022-08-17T10:09:40.681Z,25.10
2022-08-17T10:12:21.485Z,25.00
2022-08-17T10:15:07.970Z,25.00
2022-08-17T10:17:44.972Z,25.10
2022-08-17T10:20:15.921Z,25.30
2022-08-17T10:23:04.448Z,25.20
2022-08-17T10:25:55.678Z,25.10
2022-08-17T10:28:28.735Z,25.10
2022-08-17T10:31:16.599Z,24.90
2022-08-17T10:33:58.171Z,24.90
2022-08-17T10:36:30.270Z,24.80
2022-08-17T10:39:05.437Z,24.80
2022-08-17T10:41:40.313Z,24.80
2022-08-17T10:44:37.210Z,24.90
2022-08-17T10:47:10.514Z,24.90
2022-08-17T10:49:36.804Z,24.80
2022-08-17T10:52:03.583Z,24.90
2022-08-17T10:54:47.394Z,25.00
2022-08-17T10:57:42.252Z,24.90
2022-08-17T11:00:14.850Z,24.80
2022-08-17T11:02:49.878Z,24.90
2022-08-17T11:05:31.603Z,24.80
2022-08-17T11:08:36.286Z,24.80
2022-08-17T11:11:19.890Z,24.70
2022-08-17T11:14:07.582Z,24.70
2022-08-17T11:16:45.672Z,24.90
2022-08-17T11:19:47.669Z,24.50
2022-08-17T11:22:43.822Z,24.80
2022-08-17T11:25:18.307Z,24.50
2022-08-17T11:27:42.447Z,24.70
2022-08-17T11:30:10.546Z,24.60
2022-08-17T11:32:42.946Z,24.50
2022-08-17T11:35:30.311Z,24.70
2022-08-17T11:38:14.036Z,24.60
2022-08-17T11:41:12.962Z,24.60
2022-08-17T11:44:17.349Z,24.60
2022-08-17T11:47:16.282Z,24.40
2022-08-17T11:50:33.689Z,24.20
2022-08-17T11:52:58.697Z,24.50
2022-08-17T11:56:03.650Z,24.80
2022-08-17T11:58:43.271Z,24.80
2022-08-17T12:01:13.501Z,24.90
2022-08-17T12:03:57.048Z,25.00
2022-08-17T12:06:43.596Z,25.20
2022-08-17T12:09:15.826Z,25.30
2022-08-17T12:12:01.706Z,25.50
2022-08-17T12:14:51.696Z,25.40
2022-08-17T12:17:41.328Z,25.70
2022-08-17T12:20:23.278Z,25.70
2022-08-17T12:23:01.376Z,25.50
2022-08-17T12:25:35.258Z,25.20
2022-08-17T12:28:06.558Z,25.50
2022-08-17T12:30:31.170Z,25.20
2022-08-17T12:32:55.588Z,25.30
2022-08-17T12:35:35.378Z,25.40
2022-08-17T12:37:59.746Z,25.70
2022-08-17T12:40:28.172Z,25.70
2022-08-17T12:43:00.787Z,25.70
2022-08-17T12:45:29.393Z,25.70
2022-08-17T12:48:06.545Z,25.60
2022-08-17T12:50:30.416Z,26.00
2022-08-17T12:52:59.724Z,26.10
2022-08-17T12:55:27.089Z,26.20
2022-08-17T12:57:59.747Z,26.20
2022-08-17T13:00:31.248Z,26.30
2022-08-17T13:03:00.276Z,26.10
2022-08-17T13:05:29.525Z,26.00
2022-08-17T13:07:54.884Z,25.80
2022-08-17T13:10:28.613Z,25.70
2022-08-17T13:12:58.054Z,25.40
2022-08-17T13:15:27.588Z,25.30
2022-08-17T13:18:01.651Z,25.40
2022-08-17T13:20:25.477Z,25.20
2022-08-17T13:22:57.048Z,25.30
2022-08-17T13:25:20.711Z,25.70
2022-08-17T13:27:53.716Z,25.90
2022-08-17T13:30:28.024Z,25.90
2022-08-17T13:32:53.957Z,26.00
2022-08-17T13:35:50.177Z,25.70
2022-08-17T13:38:18.375Z,25.80
2022-08-17T13:40:53.286Z,25.80
2022-08-17T13:43:45.663Z,26.00
2022-08-17T13:46:13.742Z,25.80
2022-08-17T13:48:37.367Z,25.80
2022-08-17T13:51:31.068Z,25.70
2022-08-17T13:54:00.628Z,25.80
2022-08-17T13:56:39.331Z,25.70
2022-08-17T13:59:06.728Z,25.80
2022-08-17T14:01:35.900Z,26.10
2022-08-17T14:04:01.674Z,25.90
2022-08-17T14:06:52.582Z,26.00
2022-08-17T14:09:10.600Z,25.90
2022-08-17T14:11:34.168Z,25.90
2022-08-17T14:13:58.747Z,25.80
2022-08-17T14:16:22.488Z,26.00
2022-08-17T14:18:56.701Z,26.10
2022-08-17T14:21:20.870Z,26.20
2022-08-17T14:23:49.088Z,26.20
2022-08-17T14:26:18.835Z,26.30
2022-08-17T14:28:54.635Z,26.20
2022-08-17T14:31:20.663Z,26.40
2022-08-17T14:33:44.240Z,26.20
2022-08-17T14:36:09.606Z,26.20
2022-08-17T14:38:33.528Z,26.20
2022-08-17T14:40:57.271Z,26.30
2022-08-17T14:43:21.114Z,26.30
2022-08-17T14:45:45.162Z,26.20
2022-08-17T14:48:12.014Z,26.20
2022-08-17T14:50:36.535Z,26.20
2022-08-17T14:53:04.464Z,26.30
2022-08-17T14:55:28.390Z,26.40
2022-08-17T14:57:52.109Z,26.20
2022-08-17T15:00:17.474Z,26.20
2022-08-17T15:02:48.358Z,26.10
2022-08-17T15:05:12.143Z,26.10
2022-08-17T15:07:35.703Z,26.20
2022-08-17T15:10:01.481Z,26.30
2022-08-17T15:12:31.842Z,26.10
2022-08-17T15:14:57.084Z,26.30
2022-08-17T15:17:20.680Z,26.40
2022-08-17T15:19:44.369Z,26.40
2022-08-17T15:22:08.070Z,26.40
2022-08-17T15:24:31.687Z,26.30
2022-08-17T15:26:56.703Z,26.10
2022-08-17T15:29:20.287Z,26.30
2022-08-17T15:31:43.929Z,26.50
2022-08-17T15:34:07.993Z,26.30
2022-08-17T15:36:32.636Z,26.40
2022-08-17T15:38:56.185Z,26.20
2022-08-17T15:41:20.842Z,26.20
2022-08-17T15:43:47.133Z,26.10
2022-08-17T15:46:15.082Z,26.20
2022-08-17T15:48:42.754Z,26.40
2022-08-17T15:51:06.418Z,26.30
2022-08-17T15:53:30.017Z,26.10
2022-08-17T15:55:53.673Z,26.10
2022-08-17T15:58:17.232Z,26.30
2022-08-17T16:01:14.030Z,26.30
2022-08-17T16:03:58.353Z,26.40
2022-08-17T16:06:13.523Z,26.00
2022-08-17T16:08:37.677Z,26.20
2022-08-17T16:11:03.525Z,26.10
2022-08-17T16:13:28.872Z,26.10
2022-08-17T16:15:56.945Z,25.90
2022-08-17T16:18:21.209Z,25.90
2022-08-17T16:20:44.858Z,25.90
2022-08-17T16:23:09.121Z,25.90
2022-08-17T16:25:52.461Z,25.80
2022-08-17T16:28:18.273Z,25.60
2022-08-17T16:30:42.371Z,25.70
2022-08-17T16:33:07.761Z,25.70
2022-08-17T16:35:31.483Z,25.80
2022-08-17T16:37:55.887Z,25.80
2022-08-17T16:40:21.824Z,25.90
2022-08-17T16:42:49.041Z,25.90
2022-08-17T16:45:18.469Z,25.90
2022-08-17T16:47:42.925Z,26.00
2022-08-17T16:50:10.394Z,26.00
2022-08-17T16:52:34.618Z,26.00
2022-08-17T16:54:58.575Z,25.60
2022-08-17T16:57:23.150Z,25.40
2022-08-17T17:00:11.839Z,25.50
2022-08-17T17:02:39.089Z,25.60
2022-08-17T17:05:18.106Z,25.80
2022-08-17T17:08:12.675Z,25.80
2022-08-17T17:10:41.408Z,25.80
2022-08-17T17:13:06.911Z,25.80
2022-08-17T17:15:51.813Z,25.60
2022-08-17T17:18:17.195Z,25.70
2022-08-17T17:20:49.294Z,25.90
2022-08-17T17:23:35.433Z,25.90
2022-08-17T17:26:24.630Z,25.90
2022-08-17T17:29:12.877Z,26.00
2022-08-17T17:31:49.231Z,25.90
2022-08-17T17:34:16.994Z,25.70
2022-08-17T17:36:47.112Z,25.70
2022-08-17T17:39:19.092Z,25.70
2022-08-17T17:41:49.714Z,25.70
2022-08-17T17:44:19.881Z,25.50
2022-08-17T17:46:47.035Z,25.50
2022-08-17T17:49:14.121Z,25.60
2022-08-17T17:52:09.076Z,25.30
2022-08-17T17:54:52.311Z,25.40
2022-08-17T17:57:25.731Z,25.10
2022-08-17T18:00:00.828Z,25.40
2022-08-17T18:02:51.774Z,25.50
2022-08-17T18:05:34.228Z,25.60
2022-08-17T18:08:10.956Z,25.40
2022-08-17T18:10:44.898Z,25.30
2022-08-17T18:13:21.219Z,25.20
2022-08-17T18:15:53.216Z,25.40
2022-08-17T18:18:38.727Z,25.30
2022-08-17T18:21:06.690Z,25.40
2022-08-17T18:23:31.796Z,25.40
2022-08-17T18:25:56.521Z,25.20
2022-08-17T18:28:28.611Z,25.40
2022-08-17T18:31:13.004Z,25.30
2022-08-17T18:33:38.179Z,25.30
2022-08-17T18:36:02.430Z,25.10
2022-08-17T18:38:33.991Z,25.20
2022-08-17T18:41:06.867Z,25.00
2022-08-17T18:43:44.045Z,25.10
2022-08-17T18:46:38.371Z,25.00
2022-08-17T18:49:04.917Z,24.80
2022-08-17T18:51:40.752Z,25.00
2022-08-17T18:54:19.824Z,25.00
2022-08-17T18:56:45.694Z,25.10
2022-08-17T18:59:27.976Z,25.10
2022-08-17T19:02:38.799Z,24.90
2022-08-17T19:05:13.346Z,24.90
2022-08-17T19:07:40.946Z,24.90
2022-08-17T19:10:17.946Z,24.90
2022-08-17T19:12:50.582Z,24.90
2022-08-17T19:15:18.547Z,24.80
2022-08-17T19:17:49.451Z,24.80
2022-08-17T19:20:21.009Z,24.70
2022-08-17T19:22:55.434Z,24.60
2022-08-17T19:25:27.188Z,24.60
2022-08-17T19:27:57.752Z,24.70
2022-08-17T19:30:22.171Z,24.60
2022-08-17T19:32:45.742Z,24.50
2022-08-17T19:35:17.155Z,24.50
2022-08-17T19:37:49.488Z,24.40
2022-08-17T19:40:51.581Z,24.40
2022-08-17T19:43:24.378Z,24.40
2022-08-17T19:46:01.383Z,24.30
2022-08-17T19:48:40.872Z,24.30
2022-08-17T19:51:09.909Z,24.30
2022-08-17T19:54:04.442Z,24.10
2022-08-17T19:56:34.606Z,24.10
2022-08-17T19:59:07.341Z,24.00
2022-08-17T20:01:42.541Z,23.90
2022-08-17T20:04:13.835Z,23.90
2022-08-17T20:06:42.964Z,23.90
2022-08-17T20:09:18.329Z,23.80
2022-08-17T20:11:49.401Z,23.90
2022-08-17T20:14:16.506Z,23.90
2022-08-17T20:16:40.309Z,23.90
2022-08-17T20:19:08.916Z,23.80
2022-08-17T20:21:43.948Z,23.80
2022-08-17T20:24:19.947Z,23.80
2022-08-17T20:26:57.928Z,23.70
2022-08-17T20:29:40.329Z,23.70
2022-08-17T20:32:27.659Z,23.70
2022-08-17T20:35:20.036Z,23.60
2022-08-17T20:37:53.213Z,23.60
2022-08-17T20:40:26.215Z,23.50
2022-08-17T20:42:51.936Z,23.50
2022-08-17T20:46:05.732Z,23.40
2022-08-17T20:48:38.721Z,23.40
2022-08-17T20:51:26.020Z,23.30
2022-08-17T20:54:45.430Z,23.30
2022-08-17T20:57:13.971Z,23.30
2022-08-17T21:00:15.196Z,23.20
2022-08-17T21:02:39.102Z,23.30
2022-08-17T21:05:32.348Z,23.30
2022-08-17T21:08:02.177Z,23.30
2022-08-17T21:10:39.063Z,23.20
2022-08-17T21:13:23.899Z,23.20
2022-08-17T21:15:58.988Z,23.20
2022-08-17T21:18:38.663Z,23.20
2022-08-17T21:21:18.268Z,23.20
2022-08-17T21:24:04.645Z,23.20
2022-08-17T21:26:50.618Z,23.20
2022-08-17T21:29:31.447Z,23.10
2022-08-17T21:32:24.728Z,23.00
2022-08-17T21:35:28.763Z,23.10
2022-08-17T21:37:58.447Z,23.00
2022-08-17T21:40:27.430Z,22.90
2022-08-17T21:42:55.598Z,22.90
2022-08-17T21:45:28.421Z,22.90
2022-08-17T21:48:13.368Z,22.90
2022-08-17T21:50:38.146Z,23.00
2022-08-17T21:53:03.358Z,23.00
2022-08-17T21:55:30.048Z,22.90
2022-08-17T21:58:13.927Z,22.90
2022-08-17T22:00:38.520Z,22.80
2022-08-17T22:03:06.739Z,22.80
2022-08-17T22:05:34.621Z,22.70
2022-08-17T22:08:06.413Z,22.80
2022-08-17T22:10:33.486Z,22.80
2022-08-17T22:13:16.518Z,22.70
2022-08-17T22:15:46.227Z,22.80
2022-08-17T22:18:19.628Z,22.70
2022-08-17T22:20:43.399Z,22.70
2022-08-17T22:23:32.022Z,22.70
2022-08-17T22:26:02.741Z,22.60
2022-08-17T22:28:41.008Z,22.60
2022-08-17T22:31:06.938Z,22.50
2022-08-17T22:33:39.695Z,22.50
2022-08-17T22:36:29.102Z,22.40
2022-08-17T22:38:55.273Z,22.50
2022-08-17T22:41:51.152Z,22.50
2022-08-17T22:44:25.436Z,22.60
2022-08-17T22:47:11.467Z,22.40
2022-08-17T22:49:53.291Z,22.40
2022-08-17T22:52:33.852Z,22.40
2022-08-17T22:55:26.291Z,22.40
2022-08-17T22:58:08.086Z,22.40
2022-08-17T23:00:38.359Z,22.30
2022-08-17T23:03:19.447Z,22.30
2022-08-17T23:05:48.203Z,22.10
2022-08-17T23:08:12.941Z,21.90
2022-08-17T23:10:37.428Z,21.80
2022-08-17T23:13:02.116Z,21.90
2022-08-17T23:15:26.289Z,22.00
2022-08-17T23:17:50.295Z,22.10
2022-08-17T23:20:18.632Z,22.10
2022-08-17T23:22:51.973Z,22.00
2022-08-17T23:25:30.338Z,22.00
2022-08-17T23:27:54.565Z,21.90
2022-08-17T23:30:18.950Z,22.00
2022-08-17T23:32:53.906Z,22.10
2022-08-17T23:35:17.983Z,21.90
2022-08-17T23:37:42.881Z,21.90
2022-08-17T23:40:08.587Z,21.90
2022-08-17T23:42:33.679Z,21.80
2022-08-17T23:44:57.392Z,21.80
2022-08-17T23:47:24.642Z,21.80
2022-08-17T23:49:48.579Z,21.90
2022-08-17T23:52:17.958Z,21.90
2022-08-17T23:54:47.851Z,21.80
2022-08-17T23:57:13.026Z,21.70
2022-08-17T23:59:37.365Z,21.70
